RNN weather

Bornholm Airport
Rønne, Capital Region, Denmark

Public forecast

Using degrees Celsius for public forecast. Weather courtesy of forecast.io.

Current aviation weather report (METAR) for Bornholm Airport

Retrieved 2019/12/06 05:20 UTC (2 minutes ago):

EKRN 060520Z AUTO 24024G34KT 9000 DZ OVC013/// 06/04 Q1002

Closest aviation forecast (TAF) to Bornholm Airport

Closest forecast is Malmö Sturup Airport, 55.2 nm (102.1 km) WNW. Retrieved 2019-12-06 00:00 UTC (5 hours ago):

TAF ESMS 052300Z 0600/0624 22018KT 8000 -RADZ BKN008 TEMPO 0600/0608 24020G32KT 3000 RADZ BR SCT008 BKN012 BECMG 0608/0610 2000 BR BKN003 TEMPO 0610/0620 24018G30KT 6000 NSW BKN008 TEMPO 0620/0624 22015G28KT 6000 SHRA BKN008 SCT015CB